sensor_id;sensor_type;location;lat;lon;timestamp;P1;durP1;ratioP1;P2;durP2;ratioP2
18174;SDS011;9212;50.894;16.714;2023-05-07T00:00:46;15.53;;;8.07;;
18174;SDS011;9212;50.894;16.714;2023-05-07T00:03:14;18.57;;;8.53;;
18174;SDS011;9212;50.894;16.714;2023-05-07T00:05:43;15.83;;;8.67;;
18174;SDS011;9212;50.894;16.714;2023-05-07T00:08:11;18.63;;;8.43;;
18174;SDS011;9212;50.894;16.714;2023-05-07T00:10:39;16.87;;;8.37;;
18174;SDS011;9212;50.894;16.714;2023-05-07T00:13:06;16.13;;;8.43;;
18174;SDS011;9212;50.894;16.714;2023-05-07T00:15:38;14.70;;;8.20;;
18174;SDS011;9212;50.894;16.714;2023-05-07T00:18:08;12.87;;;8.63;;
18174;SDS011;9212;50.894;16.714;2023-05-07T00:20:35;15.33;;;8.40;;
18174;SDS011;9212;50.894;16.714;2023-05-07T00:23:03;17.47;;;8.23;;
18174;SDS011;9212;50.894;16.714;2023-05-07T00:25:36;16.00;;;8.27;;
18174;SDS011;9212;50.894;16.714;2023-05-07T00:28:03;14.57;;;7.93;;
18174;SDS011;9212;50.894;16.714;2023-05-07T00:30:31;19.73;;;9.23;;
18174;SDS011;9212;50.894;16.714;2023-05-07T00:32:58;21.90;;;9.23;;
18174;SDS011;9212;50.894;16.714;2023-05-07T00:35:25;15.43;;;8.30;;
18174;SDS011;9212;50.894;16.714;2023-05-07T00:37:53;21.30;;;9.33;;
18174;SDS011;9212;50.894;16.714;2023-05-07T00:40:21;15.03;;;9.57;;
18174;SDS011;9212;50.894;16.714;2023-05-07T00:42:48;16.80;;;9.27;;
18174;SDS011;9212;50.894;16.714;2023-05-07T00:45:21;20.63;;;10.07;;
18174;SDS011;9212;50.894;16.714;2023-05-07T00:47:53;18.60;;;9.40;;
18174;SDS011;9212;50.894;16.714;2023-05-07T00:50:20;16.93;;;9.80;;
18174;SDS011;9212;50.894;16.714;2023-05-07T00:52:48;17.83;;;9.27;;
18174;SDS011;9212;50.894;16.714;2023-05-07T00:55:15;13.60;;;8.40;;
18174;SDS011;9212;50.894;16.714;2023-05-07T00:57:44;21.00;;;8.67;;
18174;SDS011;9212;50.894;16.714;2023-05-07T01:00:12;13.97;;;7.90;;
18174;SDS011;9212;50.894;16.714;2023-05-07T01:02:40;16.60;;;7.63;;
18174;SDS011;9212;50.894;16.714;2023-05-07T01:05:08;20.97;;;9.70;;
18174;SDS011;9212;50.894;16.714;2023-05-07T01:07:36;15.23;;;9.03;;
18174;SDS011;9212;50.894;16.714;2023-05-07T01:10:05;14.07;;;8.53;;
18174;SDS011;9212;50.894;16.714;2023-05-07T01:12:33;20.73;;;9.57;;
18174;SDS011;9212;50.894;16.714;2023-05-07T01:15:03;16.20;;;8.90;;
18174;SDS011;9212;50.894;16.714;2023-05-07T01:17:32;15.87;;;8.87;;
18174;SDS011;9212;50.894;16.714;2023-05-07T01:20:01;13.13;;;8.33;;
18174;SDS011;9212;50.894;16.714;2023-05-07T01:22:31;17.20;;;8.80;;
18174;SDS011;9212;50.894;16.714;2023-05-07T01:25:01;16.33;;;9.80;;
18174;SDS011;9212;50.894;16.714;2023-05-07T01:27:29;9.20;;;6.57;;
18174;SDS011;9212;50.894;16.714;2023-05-07T01:29:58;14.13;;;8.60;;
18174;SDS011;9212;50.894;16.714;2023-05-07T01:32:27;17.27;;;10.13;;
18174;SDS011;9212;50.894;16.714;2023-05-07T01:34:58;14.80;;;8.90;;
18174;SDS011;9212;50.894;16.714;2023-05-07T01:37:27;14.23;;;9.07;;
18174;SDS011;9212;50.894;16.714;2023-05-07T01:39:56;12.97;;;8.80;;
18174;SDS011;9212;50.894;16.714;2023-05-07T01:42:24;18.40;;;8.83;;
18174;SDS011;9212;50.894;16.714;2023-05-07T01:44:52;12.33;;;7.63;;
18174;SDS011;9212;50.894;16.714;2023-05-07T01:47:20;14.13;;;9.27;;
18174;SDS011;9212;50.894;16.714;2023-05-07T01:49:47;15.40;;;8.90;;
18174;SDS011;9212;50.894;16.714;2023-05-07T01:52:15;15.23;;;8.70;;
18174;SDS011;9212;50.894;16.714;2023-05-07T01:54:42;17.30;;;8.93;;
18174;SDS011;9212;50.894;16.714;2023-05-07T01:57:11;17.73;;;9.53;;
18174;SDS011;9212;50.894;16.714;2023-05-07T01:59:38;13.93;;;8.90;;
18174;SDS011;9212;50.894;16.714;2023-05-07T02:02:05;14.63;;;8.87;;
18174;SDS011;9212;50.894;16.714;2023-05-07T02:04:32;23.07;;;10.50;;
18174;SDS011;9212;50.894;16.714;2023-05-07T02:07:00;16.57;;;9.77;;
18174;SDS011;9212;50.894;16.714;2023-05-07T02:09:27;15.73;;;9.67;;
18174;SDS011;9212;50.894;16.714;2023-05-07T02:11:55;18.17;;;9.10;;
18174;SDS011;9212;50.894;16.714;2023-05-07T02:14:23;18.83;;;9.10;;
18174;SDS011;9212;50.894;16.714;2023-05-07T02:16:51;20.43;;;10.40;;
18174;SDS011;9212;50.894;16.714;2023-05-07T02:19:18;19.00;;;10.83;;
18174;SDS011;9212;50.894;16.714;2023-05-07T02:21:46;15.83;;;10.47;;
18174;SDS011;9212;50.894;16.714;2023-05-07T02:24:13;16.07;;;9.63;;
18174;SDS011;9212;50.894;16.714;2023-05-07T02:26:40;18.80;;;8.80;;
18174;SDS011;9212;50.894;16.714;2023-05-07T02:29:08;16.30;;;9.77;;
18174;SDS011;9212;50.894;16.714;2023-05-07T02:31:36;17.40;;;9.33;;
18174;SDS011;9212;50.894;16.714;2023-05-07T02:34:03;15.53;;;9.70;;
18174;SDS011;9212;50.894;16.714;2023-05-07T02:36:31;15.33;;;9.00;;
18174;SDS011;9212;50.894;16.714;2023-05-07T02:38:58;17.00;;;9.20;;
18174;SDS011;9212;50.894;16.714;2023-05-07T02:41:25;14.77;;;8.03;;
18174;SDS011;9212;50.894;16.714;2023-05-07T02:43:53;14.93;;;8.73;;
18174;SDS011;9212;50.894;16.714;2023-05-07T02:46:20;12.83;;;8.63;;
18174;SDS011;9212;50.894;16.714;2023-05-07T02:48:49;14.53;;;8.40;;
18174;SDS011;9212;50.894;16.714;2023-05-07T02:51:17;16.43;;;9.50;;
18174;SDS011;9212;50.894;16.714;2023-05-07T02:53:46;13.60;;;8.80;;
18174;SDS011;9212;50.894;16.714;2023-05-07T02:56:13;20.40;;;9.87;;
18174;SDS011;9212;50.894;16.714;2023-05-07T02:58:40;13.70;;;8.60;;
18174;SDS011;9212;50.894;16.714;2023-05-07T03:01:08;16.60;;;9.30;;
18174;SDS011;9212;50.894;16.714;2023-05-07T03:03:35;23.13;;;11.10;;
18174;SDS011;9212;50.894;16.714;2023-05-07T03:06:04;17.53;;;10.17;;
18174;SDS011;9212;50.894;16.714;2023-05-07T03:08:31;16.33;;;10.37;;
18174;SDS011;9212;50.894;16.714;2023-05-07T03:10:59;18.23;;;10.30;;
18174;SDS011;9212;50.894;16.714;2023-05-07T03:13:26;18.00;;;10.07;;
18174;SDS011;9212;50.894;16.714;2023-05-07T03:15:53;18.53;;;11.17;;
18174;SDS011;9212;50.894;16.714;2023-05-07T03:18:20;21.23;;;9.87;;
18174;SDS011;9212;50.894;16.714;2023-05-07T03:20:47;19.03;;;11.00;;
18174;SDS011;9212;50.894;16.714;2023-05-07T03:23:16;19.50;;;9.20;;
18174;SDS011;9212;50.894;16.714;2023-05-07T03:25:43;18.77;;;9.90;;
18174;SDS011;9212;50.894;16.714;2023-05-07T03:28:10;19.60;;;10.40;;
18174;SDS011;9212;50.894;16.714;2023-05-07T03:30:37;17.23;;;9.70;;
18174;SDS011;9212;50.894;16.714;2023-05-07T03:33:05;12.77;;;7.90;;
18174;SDS011;9212;50.894;16.714;2023-05-07T03:35:31;17.37;;;8.73;;
18174;SDS011;9212;50.894;16.714;2023-05-07T03:37:58;13.10;;;8.37;;
18174;SDS011;9212;50.894;16.714;2023-05-07T03:40:27;14.07;;;8.77;;
18174;SDS011;9212;50.894;16.714;2023-05-07T03:42:54;13.40;;;8.40;;
18174;SDS011;9212;50.894;16.714;2023-05-07T03:45:21;15.20;;;8.47;;
18174;SDS011;9212;50.894;16.714;2023-05-07T03:47:49;12.40;;;7.67;;
18174;SDS011;9212;50.894;16.714;2023-05-07T03:50:16;14.10;;;7.93;;
18174;SDS011;9212;50.894;16.714;2023-05-07T03:52:43;18.50;;;8.53;;
18174;SDS011;9212;50.894;16.714;2023-05-07T03:55:10;14.23;;;8.57;;
18174;SDS011;9212;50.894;16.714;2023-05-07T03:57:39;16.97;;;8.73;;
18174;SDS011;9212;50.894;16.714;2023-05-07T04:00:06;17.70;;;7.23;;
18174;SDS011;9212;50.894;16.714;2023-05-07T04:02:34;14.63;;;8.57;;
18174;SDS011;9212;50.894;16.714;2023-05-07T04:05:01;18.17;;;8.53;;
18174;SDS011;9212;50.894;16.714;2023-05-07T04:07:28;19.00;;;9.10;;
18174;SDS011;9212;50.894;16.714;2023-05-07T04:09:55;17.40;;;9.17;;
18174;SDS011;9212;50.894;16.714;2023-05-07T04:12:23;17.27;;;9.60;;
18174;SDS011;9212;50.894;16.714;2023-05-07T04:14:51;18.07;;;9.90;;
18174;SDS011;9212;50.894;16.714;2023-05-07T04:17:18;18.90;;;11.10;;
18174;SDS011;9212;50.894;16.714;2023-05-07T04:19:45;21.33;;;10.03;;
18174;SDS011;9212;50.894;16.714;2023-05-07T04:22:12;19.83;;;10.73;;
18174;SDS011;9212;50.894;16.714;2023-05-07T04:24:39;21.83;;;10.33;;
18174;SDS011;9212;50.894;16.714;2023-05-07T04:27:06;20.70;;;10.77;;
18174;SDS011;9212;50.894;16.714;2023-05-07T04:29:33;16.47;;;9.73;;
18174;SDS011;9212;50.894;16.714;2023-05-07T04:32:02;19.40;;;9.10;;
18174;SDS011;9212;50.894;16.714;2023-05-07T04:34:29;22.30;;;10.17;;
18174;SDS011;9212;50.894;16.714;2023-05-07T04:36:57;16.57;;;9.97;;
18174;SDS011;9212;50.894;16.714;2023-05-07T04:39:25;16.87;;;9.10;;
18174;SDS011;9212;50.894;16.714;2023-05-07T04:41:52;16.10;;;9.10;;
18174;SDS011;9212;50.894;16.714;2023-05-07T04:44:19;15.63;;;9.33;;
18174;SDS011;9212;50.894;16.714;2023-05-07T04:46:47;19.80;;;9.47;;
18174;SDS011;9212;50.894;16.714;2023-05-07T04:49:16;14.67;;;8.73;;
18174;SDS011;9212;50.894;16.714;2023-05-07T04:51:43;14.17;;;8.77;;
18174;SDS011;9212;50.894;16.714;2023-05-07T04:54:10;15.10;;;8.43;;
18174;SDS011;9212;50.894;16.714;2023-05-07T04:56:37;14.27;;;7.73;;
18174;SDS011;9212;50.894;16.714;2023-05-07T04:59:04;20.13;;;9.83;;
18174;SDS011;9212;50.894;16.714;2023-05-07T05:01:32;17.30;;;9.03;;
18174;SDS011;9212;50.894;16.714;2023-05-07T05:03:59;14.87;;;9.07;;
18174;SDS011;9212;50.894;16.714;2023-05-07T05:06:27;12.47;;;8.10;;
18174;SDS011;9212;50.894;16.714;2023-05-07T05:08:54;13.17;;;8.03;;
18174;SDS011;9212;50.894;16.714;2023-05-07T05:11:22;11.50;;;7.50;;
18174;SDS011;9212;50.894;16.714;2023-05-07T05:13:49;14.10;;;7.63;;
18174;SDS011;9212;50.894;16.714;2023-05-07T05:16:16;14.90;;;7.63;;
18174;SDS011;9212;50.894;16.714;2023-05-07T05:18:43;14.77;;;7.73;;
18174;SDS011;9212;50.894;16.714;2023-05-07T05:21:10;13.03;;;7.40;;
18174;SDS011;9212;50.894;16.714;2023-05-07T05:23:39;15.63;;;8.87;;
18174;SDS011;9212;50.894;16.714;2023-05-07T05:26:06;16.63;;;8.50;;
18174;SDS011;9212;50.894;16.714;2023-05-07T05:28:33;14.37;;;8.53;;
18174;SDS011;9212;50.894;16.714;2023-05-07T05:31:00;18.40;;;8.93;;
18174;SDS011;9212;50.894;16.714;2023-05-07T05:33:28;17.83;;;9.40;;
18174;SDS011;9212;50.894;16.714;2023-05-07T05:35:55;18.27;;;9.50;;
18174;SDS011;9212;50.894;16.714;2023-05-07T05:38:22;18.43;;;9.23;;
18174;SDS011;9212;50.894;16.714;2023-05-07T05:40:51;17.37;;;8.93;;
18174;SDS011;9212;50.894;16.714;2023-05-07T05:43:18;16.17;;;9.37;;
18174;SDS011;9212;50.894;16.714;2023-05-07T05:45:45;13.40;;;8.07;;
18174;SDS011;9212;50.894;16.714;2023-05-07T05:48:12;17.83;;;9.07;;
18174;SDS011;9212;50.894;16.714;2023-05-07T05:50:41;24.87;;;8.87;;
18174;SDS011;9212;50.894;16.714;2023-05-07T05:53:08;17.87;;;9.60;;
18174;SDS011;9212;50.894;16.714;2023-05-07T05:55:36;19.50;;;9.40;;
18174;SDS011;9212;50.894;16.714;2023-05-07T05:58:05;16.73;;;8.37;;
18174;SDS011;9212;50.894;16.714;2023-05-07T06:00:32;15.67;;;8.70;;
18174;SDS011;9212;50.894;16.714;2023-05-07T06:02:59;17.37;;;9.20;;
18174;SDS011;9212;50.894;16.714;2023-05-07T06:05:26;13.57;;;9.07;;
18174;SDS011;9212;50.894;16.714;2023-05-07T06:07:54;14.60;;;8.77;;
18174;SDS011;9212;50.894;16.714;2023-05-07T06:10:21;11.50;;;7.87;;
18174;SDS011;9212;50.894;16.714;2023-05-07T06:12:49;13.60;;;8.00;;
18174;SDS011;9212;50.894;16.714;2023-05-07T06:15:17;13.13;;;8.40;;
18174;SDS011;9212;50.894;16.714;2023-05-07T06:17:44;11.70;;;8.00;;
18174;SDS011;9212;50.894;16.714;2023-05-07T06:20:12;13.07;;;7.47;;
18174;SDS011;9212;50.894;16.714;2023-05-07T06:22:39;12.70;;;7.43;;
18174;SDS011;9212;50.894;16.714;2023-05-07T06:25:07;9.77;;;6.90;;
18174;SDS011;9212;50.894;16.714;2023-05-07T06:27:34;9.67;;;7.17;;
18174;SDS011;9212;50.894;16.714;2023-05-07T06:30:01;10.00;;;6.37;;
18174;SDS011;9212;50.894;16.714;2023-05-07T06:32:30;12.37;;;7.00;;
18174;SDS011;9212;50.894;16.714;2023-05-07T06:34:57;9.83;;;6.50;;
18174;SDS011;9212;50.894;16.714;2023-05-07T06:37:25;9.93;;;7.13;;
18174;SDS011;9212;50.894;16.714;2023-05-07T06:39:52;11.57;;;7.07;;
18174;SDS011;9212;50.894;16.714;2023-05-07T06:42:19;12.37;;;7.07;;
18174;SDS011;9212;50.894;16.714;2023-05-07T06:44:46;10.30;;;6.23;;
18174;SDS011;9212;50.894;16.714;2023-05-07T06:47:14;7.67;;;5.50;;
18174;SDS011;9212;50.894;16.714;2023-05-07T06:49:43;9.47;;;6.00;;
18174;SDS011;9212;50.894;16.714;2023-05-07T06:52:09;7.17;;;6.13;;
18174;SDS011;9212;50.894;16.714;2023-05-07T06:54:37;6.33;;;5.43;;
18174;SDS011;9212;50.894;16.714;2023-05-07T06:57:04;9.63;;;6.17;;
18174;SDS011;9212;50.894;16.714;2023-05-07T06:59:31;7.53;;;5.97;;
18174;SDS011;9212;50.894;16.714;2023-05-07T07:01:58;8.00;;;5.80;;
18174;SDS011;9212;50.894;16.714;2023-05-07T07:04:25;6.60;;;4.73;;
18174;SDS011;9212;50.894;16.714;2023-05-07T07:06:54;7.33;;;5.23;;
18174;SDS011;9212;50.894;16.714;2023-05-07T07:09:22;5.73;;;4.73;;
18174;SDS011;9212;50.894;16.714;2023-05-07T07:11:49;8.77;;;4.70;;
18174;SDS011;9212;50.894;16.714;2023-05-07T07:14:16;5.83;;;4.83;;
18174;SDS011;9212;50.894;16.714;2023-05-07T07:16:43;5.33;;;4.57;;
18174;SDS011;9212;50.894;16.714;2023-05-07T07:19:11;5.13;;;4.60;;
18174;SDS011;9212;50.894;16.714;2023-05-07T07:21:40;5.87;;;4.60;;
18174;SDS011;9212;50.894;16.714;2023-05-07T07:24:08;6.27;;;4.67;;
18174;SDS011;9212;50.894;16.714;2023-05-07T07:26:35;5.07;;;4.57;;
18174;SDS011;9212;50.894;16.714;2023-05-07T07:29:02;5.33;;;4.30;;
18174;SDS011;9212;50.894;16.714;2023-05-07T07:31:29;4.83;;;4.33;;
18174;SDS011;9212;50.894;16.714;2023-05-07T07:33:56;6.67;;;4.57;;
18174;SDS011;9212;50.894;16.714;2023-05-07T07:36:24;4.97;;;4.13;;
18174;SDS011;9212;50.894;16.714;2023-05-07T07:38:51;5.03;;;4.53;;
18174;SDS011;9212;50.894;16.714;2023-05-07T07:41:20;4.57;;;4.10;;
18174;SDS011;9212;50.894;16.714;2023-05-07T07:43:47;5.60;;;4.47;;
18174;SDS011;9212;50.894;16.714;2023-05-07T07:46:14;4.90;;;4.40;;
18174;SDS011;9212;50.894;16.714;2023-05-07T07:48:41;5.27;;;3.93;;
18174;SDS011;9212;50.894;16.714;2023-05-07T07:51:08;5.43;;;4.10;;
18174;SDS011;9212;50.894;16.714;2023-05-07T07:53:36;5.00;;;4.03;;
18174;SDS011;9212;50.894;16.714;2023-05-07T07:56:04;7.47;;;4.73;;
18174;SDS011;9212;50.894;16.714;2023-05-07T07:58:32;4.50;;;4.10;;
18174;SDS011;9212;50.894;16.714;2023-05-07T08:01:00;9.13;;;4.63;;
18174;SDS011;9212;50.894;16.714;2023-05-07T08:03:27;15.03;;;6.43;;
18174;SDS011;9212;50.894;16.714;2023-05-07T08:05:56;10.17;;;5.00;;
18174;SDS011;9212;50.894;16.714;2023-05-07T08:08:24;6.10;;;4.47;;
18174;SDS011;9212;50.894;16.714;2023-05-07T08:10:51;6.03;;;4.20;;
18174;SDS011;9212;50.894;16.714;2023-05-07T08:13:18;4.50;;;3.93;;
18174;SDS011;9212;50.894;16.714;2023-05-07T08:15:46;5.20;;;3.73;;
18174;SDS011;9212;50.894;16.714;2023-05-07T08:18:13;4.80;;;3.90;;
18174;SDS011;9212;50.894;16.714;2023-05-07T08:20:41;6.40;;;4.27;;
18174;SDS011;9212;50.894;16.714;2023-05-07T08:23:08;7.67;;;4.27;;
18174;SDS011;9212;50.894;16.714;2023-05-07T08:25:35;7.37;;;4.60;;
18174;SDS011;9212;50.894;16.714;2023-05-07T08:28:03;6.63;;;4.80;;
18174;SDS011;9212;50.894;16.714;2023-05-07T08:30:30;7.03;;;4.33;;
18174;SDS011;9212;50.894;16.714;2023-05-07T08:32:58;4.57;;;4.17;;
18174;SDS011;9212;50.894;16.714;2023-05-07T08:35:26;5.63;;;4.80;;
18174;SDS011;9212;50.894;16.714;2023-05-07T08:37:53;5.60;;;4.63;;
18174;SDS011;9212;50.894;16.714;2023-05-07T08:40:20;7.20;;;4.93;;
18174;SDS011;9212;50.894;16.714;2023-05-07T08:42:51;7.53;;;4.90;;
18174;SDS011;9212;50.894;16.714;2023-05-07T08:45:19;7.80;;;5.23;;
18174;SDS011;9212;50.894;16.714;2023-05-07T08:47:47;6.77;;;5.10;;
18174;SDS011;9212;50.894;16.714;2023-05-07T08:50:19;6.77;;;4.87;;
18174;SDS011;9212;50.894;16.714;2023-05-07T08:52:47;9.50;;;5.33;;
18174;SDS011;9212;50.894;16.714;2023-05-07T08:55:14;8.97;;;5.47;;
18174;SDS011;9212;50.894;16.714;2023-05-07T08:57:41;7.83;;;5.00;;
18174;SDS011;9212;50.894;16.714;2023-05-07T09:00:09;6.77;;;4.50;;
18174;SDS011;9212;50.894;16.714;2023-05-07T09:02:39;4.73;;;3.53;;
18174;SDS011;9212;50.894;16.714;2023-05-07T09:05:07;4.03;;;3.10;;
18174;SDS011;9212;50.894;16.714;2023-05-07T09:07:36;4.13;;;2.80;;
18174;SDS011;9212;50.894;16.714;2023-05-07T09:10:03;5.17;;;3.40;;
18174;SDS011;9212;50.894;16.714;2023-05-07T09:12:31;4.57;;;3.00;;
18174;SDS011;9212;50.894;16.714;2023-05-07T09:15:00;5.53;;;3.53;;
18174;SDS011;9212;50.894;16.714;2023-05-07T09:17:27;4.70;;;3.67;;
18174;SDS011;9212;50.894;16.714;2023-05-07T09:19:54;4.57;;;4.17;;
18174;SDS011;9212;50.894;16.714;2023-05-07T09:22:22;4.77;;;4.00;;
18174;SDS011;9212;50.894;16.714;2023-05-07T09:24:51;4.77;;;4.20;;
18174;SDS011;9212;50.894;16.714;2023-05-07T09:27:18;5.77;;;4.13;;
18174;SDS011;9212;50.894;16.714;2023-05-07T09:29:45;6.47;;;4.60;;
18174;SDS011;9212;50.894;16.714;2023-05-07T09:32:12;8.53;;;4.90;;
18174;SDS011;9212;50.894;16.714;2023-05-07T09:34:41;6.87;;;5.57;;
18174;SDS011;9212;50.894;16.714;2023-05-07T09:37:08;8.10;;;5.60;;
18174;SDS011;9212;50.894;16.714;2023-05-07T09:39:38;6.43;;;4.80;;
18174;SDS011;9212;50.894;16.714;2023-05-07T09:42:07;7.23;;;4.97;;
18174;SDS011;9212;50.894;16.714;2023-05-07T09:44:34;7.90;;;4.90;;
18174;SDS011;9212;50.894;16.714;2023-05-07T09:47:02;8.80;;;4.77;;
18174;SDS011;9212;50.894;16.714;2023-05-07T09:49:33;8.57;;;5.30;;
18174;SDS011;9212;50.894;16.714;2023-05-07T09:52:02;9.27;;;4.83;;
18174;SDS011;9212;50.894;16.714;2023-05-07T09:54:31;6.80;;;4.90;;
18174;SDS011;9212;50.894;16.714;2023-05-07T09:56:59;5.87;;;4.50;;
18174;SDS011;9212;50.894;16.714;2023-05-07T09:59:30;6.07;;;4.67;;
18174;SDS011;9212;50.894;16.714;2023-05-07T10:01:59;4.50;;;4.10;;
18174;SDS011;9212;50.894;16.714;2023-05-07T10:04:27;6.40;;;4.63;;
18174;SDS011;9212;50.894;16.714;2023-05-07T10:06:55;9.13;;;3.87;;
18174;SDS011;9212;50.894;16.714;2023-05-07T10:09:22;5.47;;;4.60;;
18174;SDS011;9212;50.894;16.714;2023-05-07T10:11:50;7.73;;;5.77;;
18174;SDS011;9212;50.894;16.714;2023-05-07T10:14:17;4.77;;;3.87;;
18174;SDS011;9212;50.894;16.714;2023-05-07T10:16:48;7.87;;;4.57;;
18174;SDS011;9212;50.894;16.714;2023-05-07T10:19:15;5.23;;;4.30;;
18174;SDS011;9212;50.894;16.714;2023-05-07T10:21:44;4.53;;;4.03;;
18174;SDS011;9212;50.894;16.714;2023-05-07T10:24:21;6.53;;;4.40;;
18174;SDS011;9212;50.894;16.714;2023-05-07T10:26:52;7.90;;;5.00;;
18174;SDS011;9212;50.894;16.714;2023-05-07T10:29:24;7.70;;;5.43;;
18174;SDS011;9212;50.894;16.714;2023-05-07T10:31:59;6.90;;;5.53;;
18174;SDS011;9212;50.894;16.714;2023-05-07T10:34:43;9.77;;;6.27;;
18174;SDS011;9212;50.894;16.714;2023-05-07T10:37:11;8.70;;;5.03;;
18174;SDS011;9212;50.894;16.714;2023-05-07T10:39:39;5.40;;;4.43;;
18174;SDS011;9212;50.894;16.714;2023-05-07T10:42:07;5.30;;;4.50;;
18174;SDS011;9212;50.894;16.714;2023-05-07T10:44:35;6.27;;;4.73;;
18174;SDS011;9212;50.894;16.714;2023-05-07T10:47:07;5.77;;;4.40;;
18174;SDS011;9212;50.894;16.714;2023-05-07T10:49:36;5.27;;;4.63;;
18174;SDS011;9212;50.894;16.714;2023-05-07T10:52:16;5.90;;;4.47;;
18174;SDS011;9212;50.894;16.714;2023-05-07T10:54:44;12.93;;;5.33;;
18174;SDS011;9212;50.894;16.714;2023-05-07T11:00:04;6.40;;;4.63;;
18174;SDS011;9212;50.894;16.714;2023-05-07T11:05:44;7.80;;;4.67;;
18174;SDS011;9212;50.894;16.714;2023-05-07T11:08:12;5.90;;;4.73;;
18174;SDS011;9212;50.894;16.714;2023-05-07T11:10:49;5.07;;;4.20;;
18174;SDS011;9212;50.894;16.714;2023-05-07T11:13:17;6.03;;;4.33;;
18174;SDS011;9212;50.894;16.714;2023-05-07T11:15:46;4.53;;;4.00;;
18174;SDS011;9212;50.894;16.714;2023-05-07T11:18:14;6.20;;;4.37;;
18174;SDS011;9212;50.894;16.714;2023-05-07T11:20:47;5.33;;;4.33;;
18174;SDS011;9212;50.894;16.714;2023-05-07T11:26:42;5.90;;;3.90;;
18174;SDS011;9212;50.894;16.714;2023-05-07T11:29:14;7.37;;;4.57;;
18174;SDS011;9212;50.894;16.714;2023-05-07T11:31:42;7.70;;;5.13;;
18174;SDS011;9212;50.894;16.714;2023-05-07T11:34:09;4.63;;;3.93;;
18174;SDS011;9212;50.894;16.714;2023-05-07T11:36:42;5.20;;;4.07;;
18174;SDS011;9212;50.894;16.714;2023-05-07T11:41:56;6.57;;;4.57;;
18174;SDS011;9212;50.894;16.714;2023-05-07T11:44:24;4.87;;;3.73;;
18174;SDS011;9212;50.894;16.714;2023-05-07T11:46:51;4.07;;;3.13;;
18174;SDS011;9212;50.894;16.714;2023-05-07T11:49:18;3.83;;;3.10;;
18174;SDS011;9212;50.894;16.714;2023-05-07T11:51:47;6.93;;;3.50;;
18174;SDS011;9212;50.894;16.714;2023-05-07T11:54:17;8.47;;;5.40;;
18174;SDS011;9212;50.894;16.714;2023-05-07T11:56:44;6.87;;;4.27;;
18174;SDS011;9212;50.894;16.714;2023-05-07T11:59:16;5.93;;;4.13;;
18174;SDS011;9212;50.894;16.714;2023-05-07T12:01:45;4.20;;;3.80;;
18174;SDS011;9212;50.894;16.714;2023-05-07T12:04:13;3.47;;;3.20;;
18174;SDS011;9212;50.894;16.714;2023-05-07T12:06:40;3.70;;;3.40;;
18174;SDS011;9212;50.894;16.714;2023-05-07T12:09:08;5.43;;;3.47;;
18174;SDS011;9212;50.894;16.714;2023-05-07T12:11:36;7.13;;;4.10;;
18174;SDS011;9212;50.894;16.714;2023-05-07T12:14:05;4.77;;;3.77;;
18174;SDS011;9212;50.894;16.714;2023-05-07T12:16:33;4.43;;;2.93;;
18174;SDS011;9212;50.894;16.714;2023-05-07T12:19:00;4.73;;;3.70;;
18174;SDS011;9212;50.894;16.714;2023-05-07T12:21:28;6.00;;;4.10;;
18174;SDS011;9212;50.894;16.714;2023-05-07T12:23:55;7.10;;;3.97;;
18174;SDS011;9212;50.894;16.714;2023-05-07T12:26:24;6.33;;;4.07;;
18174;SDS011;9212;50.894;16.714;2023-05-07T12:28:51;5.60;;;3.57;;
18174;SDS011;9212;50.894;16.714;2023-05-07T12:31:18;6.63;;;3.60;;
18174;SDS011;9212;50.894;16.714;2023-05-07T12:33:46;5.53;;;3.43;;
18174;SDS011;9212;50.894;16.714;2023-05-07T12:36:13;5.60;;;3.60;;
18174;SDS011;9212;50.894;16.714;2023-05-07T12:38:40;8.30;;;4.67;;
18174;SDS011;9212;50.894;16.714;2023-05-07T12:41:08;9.53;;;5.03;;
18174;SDS011;9212;50.894;16.714;2023-05-07T12:43:38;4.83;;;3.80;;
18174;SDS011;9212;50.894;16.714;2023-05-07T12:46:06;6.57;;;4.50;;
18174;SDS011;9212;50.894;16.714;2023-05-07T12:48:35;7.57;;;4.50;;
18174;SDS011;9212;50.894;16.714;2023-05-07T12:51:05;7.37;;;4.60;;
18174;SDS011;9212;50.894;16.714;2023-05-07T12:53:34;7.03;;;5.30;;
18174;SDS011;9212;50.894;16.714;2023-05-07T12:56:06;5.50;;;4.70;;
18174;SDS011;9212;50.894;16.714;2023-05-07T12:58:34;6.77;;;4.00;;
18174;SDS011;9212;50.894;16.714;2023-05-07T13:01:05;5.97;;;4.30;;
18174;SDS011;9212;50.894;16.714;2023-05-07T13:03:35;4.50;;;3.90;;
18174;SDS011;9212;50.894;16.714;2023-05-07T13:06:03;6.23;;;4.00;;
18174;SDS011;9212;50.894;16.714;2023-05-07T13:08:32;5.07;;;4.23;;
18174;SDS011;9212;50.894;16.714;2023-05-07T13:11:02;4.83;;;3.77;;
18174;SDS011;9212;50.894;16.714;2023-05-07T13:13:29;9.60;;;3.93;;
18174;SDS011;9212;50.894;16.714;2023-05-07T13:15:56;4.20;;;3.70;;
18174;SDS011;9212;50.894;16.714;2023-05-07T13:18:25;5.50;;;4.07;;
18174;SDS011;9212;50.894;16.714;2023-05-07T13:20:53;6.97;;;4.93;;
18174;SDS011;9212;50.894;16.714;2023-05-07T13:23:20;5.00;;;4.10;;
18174;SDS011;9212;50.894;16.714;2023-05-07T13:25:47;6.93;;;3.70;;
18174;SDS011;9212;50.894;16.714;2023-05-07T13:28:15;9.27;;;5.93;;
18174;SDS011;9212;50.894;16.714;2023-05-07T13:30:42;7.43;;;4.40;;
18174;SDS011;9212;50.894;16.714;2023-05-07T13:33:10;9.67;;;7.53;;
18174;SDS011;9212;50.894;16.714;2023-05-07T13:35:38;6.77;;;5.60;;
18174;SDS011;9212;50.894;16.714;2023-05-07T13:38:05;7.57;;;5.10;;
18174;SDS011;9212;50.894;16.714;2023-05-07T13:40:33;8.43;;;5.07;;
18174;SDS011;9212;50.894;16.714;2023-05-07T13:43:00;5.43;;;4.30;;
18174;SDS011;9212;50.894;16.714;2023-05-07T13:45:28;7.07;;;4.33;;
18174;SDS011;9212;50.894;16.714;2023-05-07T13:47:55;6.30;;;4.43;;
18174;SDS011;9212;50.894;16.714;2023-05-07T13:50:23;4.60;;;3.87;;
18174;SDS011;9212;50.894;16.714;2023-05-07T13:52:53;8.33;;;3.60;;
18174;SDS011;9212;50.894;16.714;2023-05-07T13:55:20;10.43;;;3.50;;
18174;SDS011;9212;50.894;16.714;2023-05-07T13:57:53;7.67;;;3.67;;
18174;SDS011;9212;50.894;16.714;2023-05-07T14:00:22;10.10;;;6.37;;
18174;SDS011;9212;50.894;16.714;2023-05-07T14:02:49;18.53;;;9.23;;
18174;SDS011;9212;50.894;16.714;2023-05-07T14:05:16;3.50;;;2.93;;
18174;SDS011;9212;50.894;16.714;2023-05-07T14:07:43;6.17;;;4.20;;
18174;SDS011;9212;50.894;16.714;2023-05-07T14:10:12;6.17;;;4.50;;
18174;SDS011;9212;50.894;16.714;2023-05-07T14:12:39;13.23;;;7.47;;
18174;SDS011;9212;50.894;16.714;2023-05-07T14:15:07;5.17;;;4.03;;
18174;SDS011;9212;50.894;16.714;2023-05-07T14:17:34;4.67;;;3.40;;
18174;SDS011;9212;50.894;16.714;2023-05-07T14:20:01;12.57;;;6.63;;
18174;SDS011;9212;50.894;16.714;2023-05-07T14:22:29;10.30;;;6.33;;
18174;SDS011;9212;50.894;16.714;2023-05-07T14:24:56;15.70;;;9.40;;
18174;SDS011;9212;50.894;16.714;2023-05-07T14:27:24;7.70;;;3.93;;
18174;SDS011;9212;50.894;16.714;2023-05-07T14:29:51;16.33;;;9.13;;
18174;SDS011;9212;50.894;16.714;2023-05-07T14:32:19;6.50;;;4.53;;
18174;SDS011;9212;50.894;16.714;2023-05-07T14:34:46;18.47;;;10.13;;
18174;SDS011;9212;50.894;16.714;2023-05-07T14:37:13;6.67;;;4.37;;
18174;SDS011;9212;50.894;16.714;2023-05-07T14:39:40;10.10;;;6.20;;
18174;SDS011;9212;50.894;16.714;2023-05-07T14:42:08;9.80;;;5.57;;
18174;SDS011;9212;50.894;16.714;2023-05-07T14:44:36;8.30;;;5.40;;
18174;SDS011;9212;50.894;16.714;2023-05-07T14:47:05;11.13;;;6.80;;
18174;SDS011;9212;50.894;16.714;2023-05-07T14:49:32;17.63;;;9.30;;
18174;SDS011;9212;50.894;16.714;2023-05-07T14:52:00;16.63;;;8.50;;
18174;SDS011;9212;50.894;16.714;2023-05-07T14:54:27;17.90;;;9.17;;
18174;SDS011;9212;50.894;16.714;2023-05-07T14:56:55;9.27;;;5.93;;